sensor_id;sensor_type;location;lat;lon;timestamp;P1;durP1;ratioP1;P2;durP2;ratioP2
34715;SDS011;20943;42.870;74.606;2022-07-30T00:01:38;10.80;;;4.43;;
34715;SDS011;20943;42.870;74.606;2022-07-30T00:04:05;9.90;;;3.50;;
34715;SDS011;20943;42.870;74.606;2022-07-30T00:06:31;11.02;;;3.42;;
34715;SDS011;20943;42.870;74.606;2022-07-30T00:09:08;11.70;;;3.47;;
34715;SDS011;20943;42.870;74.606;2022-07-30T00:11:35;22.33;;;3.95;;
34715;SDS011;20943;42.870;74.606;2022-07-30T00:14:01;8.80;;;2.83;;
34715;SDS011;20943;42.870;74.606;2022-07-30T00:16:28;8.15;;;3.55;;
34715;SDS011;20943;42.870;74.606;2022-07-30T00:18:55;6.50;;;3.10;;
34715;SDS011;20943;42.870;74.606;2022-07-30T00:21:21;9.20;;;3.30;;
34715;SDS011;20943;42.870;74.606;2022-07-30T00:23:48;9.38;;;3.13;;
34715;SDS011;20943;42.870;74.606;2022-07-30T00:26:14;16.08;;;3.92;;
34715;SDS011;20943;42.870;74.606;2022-07-30T00:28:40;14.13;;;3.80;;
34715;SDS011;20943;42.870;74.606;2022-07-30T00:31:07;9.05;;;3.15;;
34715;SDS011;20943;42.870;74.606;2022-07-30T00:33:42;10.45;;;3.22;;
34715;SDS011;20943;42.870;74.606;2022-07-30T00:36:08;8.90;;;3.10;;
34715;SDS011;20943;42.870;74.606;2022-07-30T00:38:35;13.00;;;3.33;;
34715;SDS011;20943;42.870;74.606;2022-07-30T00:41:01;5.53;;;2.95;;
34715;SDS011;20943;42.870;74.606;2022-07-30T00:43:27;8.00;;;3.67;;
34715;SDS011;20943;42.870;74.606;2022-07-30T00:45:54;12.50;;;4.25;;
34715;SDS011;20943;42.870;74.606;2022-07-30T00:48:20;9.68;;;3.42;;
34715;SDS011;20943;42.870;74.606;2022-07-30T00:50:46;10.60;;;3.50;;
34715;SDS011;20943;42.870;74.606;2022-07-30T00:53:13;7.55;;;3.38;;
34715;SDS011;20943;42.870;74.606;2022-07-30T00:55:39;9.25;;;3.38;;
34715;SDS011;20943;42.870;74.606;2022-07-30T00:58:06;8.25;;;3.20;;
34715;SDS011;20943;42.870;74.606;2022-07-30T01:00:32;9.90;;;3.30;;
34715;SDS011;20943;42.870;74.606;2022-07-30T01:02:59;7.68;;;3.40;;
34715;SDS011;20943;42.870;74.606;2022-07-30T01:05:25;8.63;;;3.50;;
34715;SDS011;20943;42.870;74.606;2022-07-30T01:07:51;17.50;;;4.70;;
34715;SDS011;20943;42.870;74.606;2022-07-30T01:10:18;12.75;;;4.57;;
34715;SDS011;20943;42.870;74.606;2022-07-30T01:12:44;14.02;;;4.88;;
34715;SDS011;20943;42.870;74.606;2022-07-30T01:15:11;20.67;;;7.05;;
34715;SDS011;20943;42.870;74.606;2022-07-30T01:17:37;16.30;;;7.10;;
34715;SDS011;20943;42.870;74.606;2022-07-30T01:20:05;17.20;;;7.70;;
34715;SDS011;20943;42.870;74.606;2022-07-30T01:22:34;18.23;;;7.80;;
34715;SDS011;20943;42.870;74.606;2022-07-30T01:27:51;49.53;;;18.75;;
34715;SDS011;20943;42.870;74.606;2022-07-30T01:30:19;46.00;;;17.65;;
34715;SDS011;20943;42.870;74.606;2022-07-30T01:32:46;40.42;;;14.63;;
34715;SDS011;20943;42.870;74.606;2022-07-30T01:35:14;32.75;;;13.93;;
34715;SDS011;20943;42.870;74.606;2022-07-30T01:37:43;34.35;;;15.10;;
34715;SDS011;20943;42.870;74.606;2022-07-30T01:40:10;36.55;;;14.25;;
34715;SDS011;20943;42.870;74.606;2022-07-30T01:42:39;35.78;;;16.98;;
34715;SDS011;20943;42.870;74.606;2022-07-30T01:45:06;39.63;;;18.90;;
34715;SDS011;20943;42.870;74.606;2022-07-30T01:47:34;42.47;;;19.15;;
34715;SDS011;20943;42.870;74.606;2022-07-30T01:50:02;49.03;;;21.48;;
34715;SDS011;20943;42.870;74.606;2022-07-30T01:52:31;59.38;;;24.20;;
34715;SDS011;20943;42.870;74.606;2022-07-30T01:54:58;133.02;;;27.40;;
34715;SDS011;20943;42.870;74.606;2022-07-30T01:57:25;80.80;;;24.60;;
34715;SDS011;20943;42.870;74.606;2022-07-30T01:59:53;58.30;;;19.92;;
34715;SDS011;20943;42.870;74.606;2022-07-30T02:02:22;43.70;;;16.15;;
34715;SDS011;20943;42.870;74.606;2022-07-30T02:04:49;40.08;;;15.65;;
34715;SDS011;20943;42.870;74.606;2022-07-30T02:07:17;36.05;;;13.60;;
34715;SDS011;20943;42.870;74.606;2022-07-30T02:09:54;34.42;;;12.93;;
34715;SDS011;20943;42.870;74.606;2022-07-30T02:12:23;42.30;;;14.82;;
34715;SDS011;20943;42.870;74.606;2022-07-30T02:15:02;29.50;;;13.13;;
34715;SDS011;20943;42.870;74.606;2022-07-30T02:17:36;32.65;;;11.27;;
34715;SDS011;20943;42.870;74.606;2022-07-30T02:20:03;30.35;;;12.07;;
34715;SDS011;20943;42.870;74.606;2022-07-30T02:22:31;46.15;;;13.45;;
34715;SDS011;20943;42.870;74.606;2022-07-30T02:24:59;28.80;;;12.75;;
34715;SDS011;20943;42.870;74.606;2022-07-30T02:27:26;26.73;;;12.10;;
34715;SDS011;20943;42.870;74.606;2022-07-30T02:29:53;30.75;;;13.35;;
34715;SDS011;20943;42.870;74.606;2022-07-30T02:32:21;28.52;;;10.38;;
34715;SDS011;20943;42.870;74.606;2022-07-30T02:34:50;23.35;;;12.20;;
34715;SDS011;20943;42.870;74.606;2022-07-30T02:37:17;28.10;;;10.07;;
34715;SDS011;20943;42.870;74.606;2022-07-30T02:39:47;18.63;;;8.20;;
34715;SDS011;20943;42.870;74.606;2022-07-30T02:42:14;18.63;;;7.35;;
34715;SDS011;20943;42.870;74.606;2022-07-30T02:44:41;20.13;;;7.22;;
34715;SDS011;20943;42.870;74.606;2022-07-30T02:47:08;18.23;;;6.43;;
34715;SDS011;20943;42.870;74.606;2022-07-30T02:49:36;13.38;;;6.65;;
34715;SDS011;20943;42.870;74.606;2022-07-30T02:52:04;15.88;;;7.05;;
34715;SDS011;20943;42.870;74.606;2022-07-30T02:54:33;18.65;;;6.93;;
34715;SDS011;20943;42.870;74.606;2022-07-30T02:57:02;18.48;;;6.95;;
34715;SDS011;20943;42.870;74.606;2022-07-30T02:59:29;22.40;;;7.78;;
34715;SDS011;20943;42.870;74.606;2022-07-30T03:01:56;19.48;;;6.90;;
34715;SDS011;20943;42.870;74.606;2022-07-30T03:04:22;25.38;;;7.55;;
34715;SDS011;20943;42.870;74.606;2022-07-30T03:06:50;23.35;;;7.68;;
34715;SDS011;20943;42.870;74.606;2022-07-30T03:09:17;31.83;;;7.57;;
34715;SDS011;20943;42.870;74.606;2022-07-30T03:11:45;25.92;;;7.03;;
34715;SDS011;20943;42.870;74.606;2022-07-30T03:14:12;20.38;;;7.30;;
34715;SDS011;20943;42.870;74.606;2022-07-30T03:16:38;28.00;;;9.02;;
34715;SDS011;20943;42.870;74.606;2022-07-30T03:19:07;38.38;;;9.38;;
34715;SDS011;20943;42.870;74.606;2022-07-30T03:21:36;39.22;;;9.40;;
34715;SDS011;20943;42.870;74.606;2022-07-30T03:24:03;56.97;;;10.27;;
34715;SDS011;20943;42.870;74.606;2022-07-30T03:26:41;37.45;;;8.25;;
34715;SDS011;20943;42.870;74.606;2022-07-30T03:29:07;27.35;;;7.40;;
34715;SDS011;20943;42.870;74.606;2022-07-30T03:31:37;21.95;;;6.63;;
34715;SDS011;20943;42.870;74.606;2022-07-30T03:34:05;25.50;;;7.07;;
34715;SDS011;20943;42.870;74.606;2022-07-30T03:36:31;22.20;;;7.57;;
34715;SDS011;20943;42.870;74.606;2022-07-30T03:38:59;25.70;;;8.23;;
34715;SDS011;20943;42.870;74.606;2022-07-30T03:41:25;33.58;;;7.80;;
34715;SDS011;20943;42.870;74.606;2022-07-30T03:43:51;29.20;;;7.75;;
34715;SDS011;20943;42.870;74.606;2022-07-30T03:46:19;29.65;;;7.93;;
34715;SDS011;20943;42.870;74.606;2022-07-30T03:48:45;40.72;;;9.40;;
34715;SDS011;20943;42.870;74.606;2022-07-30T03:51:12;34.42;;;8.30;;
34715;SDS011;20943;42.870;74.606;2022-07-30T03:53:41;32.40;;;8.52;;
34715;SDS011;20943;42.870;74.606;2022-07-30T03:56:08;36.15;;;8.15;;
34715;SDS011;20943;42.870;74.606;2022-07-30T03:58:35;40.58;;;8.55;;
34715;SDS011;20943;42.870;74.606;2022-07-30T04:01:02;34.08;;;8.82;;
34715;SDS011;20943;42.870;74.606;2022-07-30T04:03:30;41.25;;;8.23;;
34715;SDS011;20943;42.870;74.606;2022-07-30T04:05:56;47.70;;;9.50;;
34715;SDS011;20943;42.870;74.606;2022-07-30T04:08:33;39.30;;;8.43;;
34715;SDS011;20943;42.870;74.606;2022-07-30T04:11:00;27.38;;;8.10;;
34715;SDS011;20943;42.870;74.606;2022-07-30T04:13:26;35.78;;;9.25;;
34715;SDS011;20943;42.870;74.606;2022-07-30T04:15:55;46.80;;;9.18;;
34715;SDS011;20943;42.870;74.606;2022-07-30T04:18:24;40.28;;;9.27;;
34715;SDS011;20943;42.870;74.606;2022-07-30T04:20:51;61.20;;;10.65;;
34715;SDS011;20943;42.870;74.606;2022-07-30T04:23:19;68.50;;;11.38;;
34715;SDS011;20943;42.870;74.606;2022-07-30T04:25:45;68.57;;;11.50;;
34715;SDS011;20943;42.870;74.606;2022-07-30T04:28:12;55.85;;;11.65;;
34715;SDS011;20943;42.870;74.606;2022-07-30T04:30:39;50.08;;;9.55;;
34715;SDS011;20943;42.870;74.606;2022-07-30T04:33:05;74.55;;;12.90;;
34715;SDS011;20943;42.870;74.606;2022-07-30T04:35:32;72.88;;;13.48;;
34715;SDS011;20943;42.870;74.606;2022-07-30T04:37:59;70.20;;;13.02;;
34715;SDS011;20943;42.870;74.606;2022-07-30T04:40:28;58.33;;;11.43;;
34715;SDS011;20943;42.870;74.606;2022-07-30T04:42:55;50.92;;;11.90;;
34715;SDS011;20943;42.870;74.606;2022-07-30T04:45:22;46.28;;;11.65;;
34715;SDS011;20943;42.870;74.606;2022-07-30T04:47:48;58.88;;;11.50;;
34715;SDS011;20943;42.870;74.606;2022-07-30T04:50:19;50.08;;;9.70;;
34715;SDS011;20943;42.870;74.606;2022-07-30T04:52:46;47.45;;;9.35;;
34715;SDS011;20943;42.870;74.606;2022-07-30T04:55:13;35.28;;;9.15;;
34715;SDS011;20943;42.870;74.606;2022-07-30T04:57:40;38.47;;;9.35;;
34715;SDS011;20943;42.870;74.606;2022-07-30T05:00:07;40.38;;;10.00;;
34715;SDS011;20943;42.870;74.606;2022-07-30T05:02:41;30.27;;;8.13;;
34715;SDS011;20943;42.870;74.606;2022-07-30T05:05:09;40.45;;;8.98;;
34715;SDS011;20943;42.870;74.606;2022-07-30T05:07:37;31.48;;;8.20;;
34715;SDS011;20943;42.870;74.606;2022-07-30T05:10:04;30.92;;;8.68;;
34715;SDS011;20943;42.870;74.606;2022-07-30T05:12:36;41.97;;;9.60;;
34715;SDS011;20943;42.870;74.606;2022-07-30T05:15:03;30.33;;;9.15;;
34715;SDS011;20943;42.870;74.606;2022-07-30T05:17:30;37.80;;;9.45;;
34715;SDS011;20943;42.870;74.606;2022-07-30T05:19:56;39.97;;;9.30;;
34715;SDS011;20943;42.870;74.606;2022-07-30T05:22:23;36.47;;;9.70;;
34715;SDS011;20943;42.870;74.606;2022-07-30T05:24:55;38.10;;;10.18;;
34715;SDS011;20943;42.870;74.606;2022-07-30T05:27:22;29.45;;;9.45;;
34715;SDS011;20943;42.870;74.606;2022-07-30T05:29:48;36.75;;;9.80;;
34715;SDS011;20943;42.870;74.606;2022-07-30T05:32:15;29.67;;;8.35;;
34715;SDS011;20943;42.870;74.606;2022-07-30T05:34:41;32.03;;;9.20;;
34715;SDS011;20943;42.870;74.606;2022-07-30T05:37:08;25.95;;;8.02;;
34715;SDS011;20943;42.870;74.606;2022-07-30T05:39:36;23.15;;;7.53;;
34715;SDS011;20943;42.870;74.606;2022-07-30T05:42:06;27.77;;;7.80;;
34715;SDS011;20943;42.870;74.606;2022-07-30T05:44:33;27.97;;;8.30;;
34715;SDS011;20943;42.870;74.606;2022-07-30T05:47:00;35.40;;;8.77;;
34715;SDS011;20943;42.870;74.606;2022-07-30T05:49:26;21.60;;;8.27;;
34715;SDS011;20943;42.870;74.606;2022-07-30T05:51:55;24.30;;;7.32;;
34715;SDS011;20943;42.870;74.606;2022-07-30T05:54:22;29.85;;;7.45;;
34715;SDS011;20943;42.870;74.606;2022-07-30T05:56:51;25.38;;;7.78;;
34715;SDS011;20943;42.870;74.606;2022-07-30T05:59:18;19.42;;;6.72;;
34715;SDS011;20943;42.870;74.606;2022-07-30T06:01:44;21.95;;;6.75;;
34715;SDS011;20943;42.870;74.606;2022-07-30T06:04:11;19.30;;;7.20;;
34715;SDS011;20943;42.870;74.606;2022-07-30T06:06:38;19.98;;;7.13;;
34715;SDS011;20943;42.870;74.606;2022-07-30T06:09:05;33.83;;;8.75;;
34715;SDS011;20943;42.870;74.606;2022-07-30T06:11:31;29.92;;;9.88;;
34715;SDS011;20943;42.870;74.606;2022-07-30T06:14:05;38.38;;;10.27;;
34715;SDS011;20943;42.870;74.606;2022-07-30T06:16:32;24.25;;;6.97;;
34715;SDS011;20943;42.870;74.606;2022-07-30T06:18:58;15.90;;;5.85;;
34715;SDS011;20943;42.870;74.606;2022-07-30T06:21:25;19.58;;;6.70;;
34715;SDS011;20943;42.870;74.606;2022-07-30T06:23:53;24.40;;;5.82;;
34715;SDS011;20943;42.870;74.606;2022-07-30T06:26:21;18.45;;;5.43;;
34715;SDS011;20943;42.870;74.606;2022-07-30T06:28:47;21.33;;;7.32;;
34715;SDS011;20943;42.870;74.606;2022-07-30T06:31:15;29.67;;;7.38;;
34715;SDS011;20943;42.870;74.606;2022-07-30T06:33:42;35.03;;;8.88;;
34715;SDS011;20943;42.870;74.606;2022-07-30T06:38:46;19.33;;;6.13;;
34715;SDS011;20943;42.870;74.606;2022-07-30T06:41:13;20.15;;;5.63;;
34715;SDS011;20943;42.870;74.606;2022-07-30T06:43:42;11.55;;;4.93;;
34715;SDS011;20943;42.870;74.606;2022-07-30T06:46:16;18.70;;;6.35;;
34715;SDS011;20943;42.870;74.606;2022-07-30T06:48:52;16.45;;;5.75;;
34715;SDS011;20943;42.870;74.606;2022-07-30T06:51:21;20.85;;;5.63;;
34715;SDS011;20943;42.870;74.606;2022-07-30T06:53:50;13.60;;;4.25;;
34715;SDS011;20943;42.870;74.606;2022-07-30T06:56:32;13.38;;;4.38;;
34715;SDS011;20943;42.870;74.606;2022-07-30T06:59:15;18.35;;;4.93;;
34715;SDS011;20943;42.870;74.606;2022-07-30T07:01:44;27.63;;;7.20;;
34715;SDS011;20943;42.870;74.606;2022-07-30T07:04:16;20.35;;;6.80;;
34715;SDS011;20943;42.870;74.606;2022-07-30T07:06:50;22.42;;;7.35;;
34715;SDS011;20943;42.870;74.606;2022-07-30T07:09:35;28.02;;;8.60;;
34715;SDS011;20943;42.870;74.606;2022-07-30T07:12:11;22.50;;;8.18;;
34715;SDS011;20943;42.870;74.606;2022-07-30T07:14:50;26.60;;;7.38;;
34715;SDS011;20943;42.870;74.606;2022-07-30T07:17:20;30.80;;;9.00;;
34715;SDS011;20943;42.870;74.606;2022-07-30T07:19:47;22.13;;;8.02;;
34715;SDS011;20943;42.870;74.606;2022-07-30T07:22:18;20.15;;;8.43;;
34715;SDS011;20943;42.870;74.606;2022-07-30T07:24:50;21.27;;;8.82;;
34715;SDS011;20943;42.870;74.606;2022-07-30T07:27:24;25.48;;;8.23;;
34715;SDS011;20943;42.870;74.606;2022-07-30T07:29:59;16.52;;;7.35;;
34715;SDS011;20943;42.870;74.606;2022-07-30T07:32:27;25.08;;;8.73;;
34715;SDS011;20943;42.870;74.606;2022-07-30T07:35:08;18.95;;;7.88;;
34715;SDS011;20943;42.870;74.606;2022-07-30T07:38:12;25.38;;;8.35;;
34715;SDS011;20943;42.870;74.606;2022-07-30T07:40:47;18.83;;;7.35;;
34715;SDS011;20943;42.870;74.606;2022-07-30T07:43:17;21.20;;;7.88;;
34715;SDS011;20943;42.870;74.606;2022-07-30T07:45:52;21.60;;;8.30;;
34715;SDS011;20943;42.870;74.606;2022-07-30T07:48:32;16.55;;;7.10;;
34715;SDS011;20943;42.870;74.606;2022-07-30T07:51:07;22.08;;;7.45;;
34715;SDS011;20943;42.870;74.606;2022-07-30T07:53:40;17.95;;;8.43;;
34715;SDS011;20943;42.870;74.606;2022-07-30T07:56:10;22.75;;;7.43;;
34715;SDS011;20943;42.870;74.606;2022-07-30T07:58:49;13.60;;;7.40;;
34715;SDS011;20943;42.870;74.606;2022-07-30T08:01:22;18.02;;;7.35;;
34715;SDS011;20943;42.870;74.606;2022-07-30T08:03:52;19.08;;;7.40;;
34715;SDS011;20943;42.870;74.606;2022-07-30T08:06:42;16.98;;;6.63;;
34715;SDS011;20943;42.870;74.606;2022-07-30T08:09:15;16.85;;;6.63;;
34715;SDS011;20943;42.870;74.606;2022-07-30T08:11:53;19.73;;;6.50;;
34715;SDS011;20943;42.870;74.606;2022-07-30T08:14:33;19.40;;;6.32;;
34715;SDS011;20943;42.870;74.606;2022-07-30T08:17:16;17.95;;;6.60;;
34715;SDS011;20943;42.870;74.606;2022-07-30T08:20:03;15.23;;;6.25;;
34715;SDS011;20943;42.870;74.606;2022-07-30T08:22:35;15.32;;;5.90;;
34715;SDS011;20943;42.870;74.606;2022-07-30T08:25:03;16.33;;;5.80;;
34715;SDS011;20943;42.870;74.606;2022-07-30T08:27:43;14.90;;;5.25;;
34715;SDS011;20943;42.870;74.606;2022-07-30T08:30:31;19.02;;;5.57;;
34715;SDS011;20943;42.870;74.606;2022-07-30T08:33:06;15.10;;;5.40;;
34715;SDS011;20943;42.870;74.606;2022-07-30T08:35:55;17.33;;;5.38;;
34715;SDS011;20943;42.870;74.606;2022-07-30T08:38:40;9.35;;;5.13;;
34715;SDS011;20943;42.870;74.606;2022-07-30T08:41:34;11.90;;;5.78;;
34715;SDS011;20943;42.870;74.606;2022-07-30T08:44:11;15.30;;;5.47;;
34715;SDS011;20943;42.870;74.606;2022-07-30T08:46:51;16.17;;;5.65;;
34715;SDS011;20943;42.870;74.606;2022-07-30T08:49:37;15.00;;;5.40;;
34715;SDS011;20943;42.870;74.606;2022-07-30T08:52:32;17.30;;;5.55;;
34715;SDS011;20943;42.870;74.606;2022-07-30T08:55:08;18.88;;;5.40;;
34715;SDS011;20943;42.870;74.606;2022-07-30T08:57:41;14.60;;;4.95;;
34715;SDS011;20943;42.870;74.606;2022-07-30T09:00:19;16.13;;;5.35;;
34715;SDS011;20943;42.870;74.606;2022-07-30T09:03:02;18.85;;;5.47;;
34715;SDS011;20943;42.870;74.606;2022-07-30T09:05:33;11.77;;;4.80;;
34715;SDS011;20943;42.870;74.606;2022-07-30T09:08:03;15.77;;;5.20;;
34715;SDS011;20943;42.870;74.606;2022-07-30T09:10:39;18.85;;;4.93;;
34715;SDS011;20943;42.870;74.606;2022-07-30T09:15:57;26.80;;;5.32;;
34715;SDS011;20943;42.870;74.606;2022-07-30T09:21:20;16.98;;;4.18;;
34715;SDS011;20943;42.870;74.606;2022-07-30T09:23:58;13.75;;;3.85;;
34715;SDS011;20943;42.870;74.606;2022-07-30T09:29:29;14.35;;;4.15;;
34715;SDS011;20943;42.870;74.606;2022-07-30T09:34:47;12.70;;;4.13;;
34715;SDS011;20943;42.870;74.606;2022-07-30T09:37:30;9.85;;;4.40;;
34715;SDS011;20943;42.870;74.606;2022-07-30T09:40:16;6.70;;;3.92;;
34715;SDS011;20943;42.870;74.606;2022-07-30T09:43:08;10.98;;;4.00;;
34715;SDS011;20943;42.870;74.606;2022-07-30T09:45:56;14.23;;;4.25;;
34715;SDS011;20943;42.870;74.606;2022-07-30T09:48:31;10.77;;;4.30;;
34715;SDS011;20943;42.870;74.606;2022-07-30T09:51:08;11.48;;;4.22;;
34715;SDS011;20943;42.870;74.606;2022-07-30T09:54:13;16.50;;;4.20;;
34715;SDS011;20943;42.870;74.606;2022-07-30T09:57:01;11.43;;;4.45;;
34715;SDS011;20943;42.870;74.606;2022-07-30T09:59:47;12.43;;;3.85;;
34715;SDS011;20943;42.870;74.606;2022-07-30T10:02:31;13.40;;;5.30;;
34715;SDS011;20943;42.870;74.606;2022-07-30T10:05:13;13.40;;;5.20;;
34715;SDS011;20943;42.870;74.606;2022-07-30T10:10:30;19.85;;;6.00;;
34715;SDS011;20943;42.870;74.606;2022-07-30T10:13:22;15.23;;;5.65;;
34715;SDS011;20943;42.870;74.606;2022-07-30T10:15:58;15.60;;;5.40;;
34715;SDS011;20943;42.870;74.606;2022-07-30T10:18:28;20.65;;;5.22;;
34715;SDS011;20943;42.870;74.606;2022-07-30T10:21:09;17.35;;;5.30;;
34715;SDS011;20943;42.870;74.606;2022-07-30T10:23:40;11.05;;;5.65;;
34715;SDS011;20943;42.870;74.606;2022-07-30T10:26:16;11.63;;;4.95;;
34715;SDS011;20943;42.870;74.606;2022-07-30T10:28:46;12.40;;;4.63;;
34715;SDS011;20943;42.870;74.606;2022-07-30T10:31:18;18.40;;;4.88;;
34715;SDS011;20943;42.870;74.606;2022-07-30T10:33:52;13.23;;;5.22;;
34715;SDS011;20943;42.870;74.606;2022-07-30T10:36:25;15.68;;;4.53;;
34715;SDS011;20943;42.870;74.606;2022-07-30T10:39:13;12.15;;;4.45;;
34715;SDS011;20943;42.870;74.606;2022-07-30T10:42:09;10.20;;;3.97;;
34715;SDS011;20943;42.870;74.606;2022-07-30T10:44:54;12.90;;;4.70;;
34715;SDS011;20943;42.870;74.606;2022-07-30T10:47:48;14.73;;;4.53;;
34715;SDS011;20943;42.870;74.606;2022-07-30T10:50:31;17.95;;;5.63;;
34715;SDS011;20943;42.870;74.606;2022-07-30T10:53:05;9.40;;;4.85;;
34715;SDS011;20943;42.870;74.606;2022-07-30T10:55:45;9.45;;;4.88;;
34715;SDS011;20943;42.870;74.606;2022-07-30T11:09:56;5.07;;;2.90;;
34715;SDS011;20943;42.870;74.606;2022-07-30T11:15:18;9.63;;;2.45;;
34715;SDS011;20943;42.870;74.606;2022-07-30T11:23:38;9.27;;;2.90;;
34715;SDS011;20943;42.870;74.606;2022-07-30T11:26:07;4.95;;;2.03;;
34715;SDS011;20943;42.870;74.606;2022-07-30T11:28:47;5.88;;;2.10;;
34715;SDS011;20943;42.870;74.606;2022-07-30T11:34:26;7.47;;;1.55;;
34715;SDS011;20943;42.870;74.606;2022-07-30T11:47:52;8.48;;;1.80;;
34715;SDS011;20943;42.870;74.606;2022-07-30T11:50:48;2.53;;;1.27;;
34715;SDS011;20943;42.870;74.606;2022-07-30T11:53:31;4.40;;;1.38;;
34715;SDS011;20943;42.870;74.606;2022-07-30T11:56:07;6.50;;;1.50;;
34715;SDS011;20943;42.870;74.606;2022-07-30T11:58:59;2.75;;;1.40;;
34715;SDS011;20943;42.870;74.606;2022-07-30T12:01:34;5.45;;;1.48;;
34715;SDS011;20943;42.870;74.606;2022-07-30T12:04:32;4.90;;;1.15;;
34715;SDS011;20943;42.870;74.606;2022-07-30T12:07:03;4.15;;;1.27;;
34715;SDS011;20943;42.870;74.606;2022-07-30T12:10:10;5.03;;;1.30;;
34715;SDS011;20943;42.870;74.606;2022-07-30T12:13:17;6.43;;;1.10;;
34715;SDS011;20943;42.870;74.606;2022-07-30T12:15:49;3.50;;;1.20;;
34715;SDS011;20943;42.870;74.606;2022-07-30T12:18:28;3.20;;;1.13;;
34715;SDS011;20943;42.870;74.606;2022-07-30T12:21:02;4.72;;;1.83;;
34715;SDS011;20943;42.870;74.606;2022-07-30T12:24:05;4.55;;;1.25;;
34715;SDS011;20943;42.870;74.606;2022-07-30T12:26:42;2.28;;;1.50;;
34715;SDS011;20943;42.870;74.606;2022-07-30T12:29:18;7.07;;;1.88;;
34715;SDS011;20943;42.870;74.606;2022-07-30T12:31:58;7.47;;;1.80;;
34715;SDS011;20943;42.870;74.606;2022-07-30T12:34:29;7.03;;;1.67;;
34715;SDS011;20943;42.870;74.606;2022-07-30T12:37:09;6.30;;;2.00;;
34715;SDS011;20943;42.870;74.606;2022-07-30T12:39:44;6.28;;;1.42;;
34715;SDS011;20943;42.870;74.606;2022-07-30T12:42:18;5.07;;;1.70;;
34715;SDS011;20943;42.870;74.606;2022-07-30T12:44:52;5.88;;;1.60;;
34715;SDS011;20943;42.870;74.606;2022-07-30T12:50:16;4.45;;;1.30;;
34715;SDS011;20943;42.870;74.606;2022-07-30T12:52:54;3.85;;;1.10;;
34715;SDS011;20943;42.870;74.606;2022-07-30T12:55:34;5.68;;;1.40;;
34715;SDS011;20943;42.870;74.606;2022-07-30T12:58:10;5.60;;;1.42;;
34715;SDS011;20943;42.870;74.606;2022-07-30T13:03:25;3.10;;;1.17;;
34715;SDS011;20943;42.870;74.606;2022-07-30T13:06:13;3.08;;;1.10;;
34715;SDS011;20943;42.870;74.606;2022-07-30T13:08:57;5.15;;;1.60;;
34715;SDS011;20943;42.870;74.606;2022-07-30T13:11:36;6.18;;;1.50;;
34715;SDS011;20943;42.870;74.606;2022-07-30T13:14:04;4.10;;;1.50;;
34715;SDS011;20943;42.870;74.606;2022-07-30T13:16:38;3.28;;;1.10;;
34715;SDS011;20943;42.870;74.606;2022-07-30T13:19:11;10.70;;;1.83;;
34715;SDS011;20943;42.870;74.606;2022-07-30T13:21:47;4.63;;;1.42;;
34715;SDS011;20943;42.870;74.606;2022-07-30T13:24:18;3.60;;;1.38;;
34715;SDS011;20943;42.870;74.606;2022-07-30T13:26:58;6.38;;;1.58;;
34715;SDS011;20943;42.870;74.606;2022-07-30T13:29:38;5.00;;;1.45;;
34715;SDS011;20943;42.870;74.606;2022-07-30T13:32:13;2.35;;;1.42;;
34715;SDS011;20943;42.870;74.606;2022-07-30T13:34:50;5.85;;;1.50;;
34715;SDS011;20943;42.870;74.606;2022-07-30T13:37:37;3.92;;;1.42;;
34715;SDS011;20943;42.870;74.606;2022-07-30T13:40:12;2.78;;;1.67;;
34715;SDS011;20943;42.870;74.606;2022-07-30T13:42:42;3.67;;;1.50;;
34715;SDS011;20943;42.870;74.606;2022-07-30T13:45:13;5.90;;;1.80;;
34715;SDS011;20943;42.870;74.606;2022-07-30T13:47:51;5.18;;;2.00;;
34715;SDS011;20943;42.870;74.606;2022-07-30T13:50:24;5.80;;;1.92;;
34715;SDS011;20943;42.870;74.606;2022-07-30T13:53:02;6.28;;;2.22;;
34715;SDS011;20943;42.870;74.606;2022-07-30T13:58:00;3.67;;;2.00;;
34715;SDS011;20943;42.870;74.606;2022-07-30T14:00:39;8.43;;;2.75;;
34715;SDS011;20943;42.870;74.606;2022-07-30T14:03:29;7.90;;;2.55;;
34715;SDS011;20943;42.870;74.606;2022-07-30T14:06:17;9.00;;;2.60;;
34715;SDS011;20943;42.870;74.606;2022-07-30T14:08:52;7.13;;;3.35;;
34715;SDS011;20943;42.870;74.606;2022-07-30T14:11:24;10.98;;;4.20;;
34715;SDS011;20943;42.870;74.606;2022-07-30T14:14:03;8.85;;;4.78;;
34715;SDS011;20943;42.870;74.606;2022-07-30T14:16:36;13.25;;;4.88;;
34715;SDS011;20943;42.870;74.606;2022-07-30T14:19:08;16.17;;;5.55;;
34715;SDS011;20943;42.870;74.606;2022-07-30T14:21:48;13.82;;;6.03;;
34715;SDS011;20943;42.870;74.606;2022-07-30T14:24:31;11.25;;;5.13;;
34715;SDS011;20943;42.870;74.606;2022-07-30T14:27:07;12.38;;;5.57;;
34715;SDS011;20943;42.870;74.606;2022-07-30T14:29:52;10.45;;;4.93;;
34715;SDS011;20943;42.870;74.606;2022-07-30T14:32:37;11.32;;;4.63;;
34715;SDS011;20943;42.870;74.606;2022-07-30T14:35:08;10.75;;;6.57;;
34715;SDS011;20943;42.870;74.606;2022-07-30T14:37:42;21.30;;;8.90;;
34715;SDS011;20943;42.870;74.606;2022-07-30T14:40:22;18.55;;;8.75;;
34715;SDS011;20943;42.870;74.606;2022-07-30T14:42:54;18.20;;;7.63;;
34715;SDS011;20943;42.870;74.606;2022-07-30T14:45:30;20.70;;;8.50;;
34715;SDS011;20943;42.870;74.606;2022-07-30T14:48:00;19.80;;;8.45;;
34715;SDS011;20943;42.870;74.606;2022-07-30T14:50:32;16.17;;;7.63;;
34715;SDS011;20943;42.870;74.606;2022-07-30T14:53:11;12.60;;;5.70;;
34715;SDS011;20943;42.870;74.606;2022-07-30T14:55:46;19.23;;;6.80;;
34715;SDS011;20943;42.870;74.606;2022-07-30T14:58:29;13.23;;;6.65;;
34715;SDS011;20943;42.870;74.606;2022-07-30T15:01:38;19.38;;;7.93;;
34715;SDS011;20943;42.870;74.606;2022-07-30T15:04:30;16.00;;;7.63;;
34715;SDS011;20943;42.870;74.606;2022-07-30T15:07:23;16.85;;;6.93;;
34715;SDS011;20943;42.870;74.606;2022-07-30T15:09:55;17.75;;;7.38;;
34715;SDS011;20943;42.870;74.606;2022-07-30T15:12:38;18.15;;;8.10;;
34715;SDS011;20943;42.870;74.606;2022-07-30T15:15:12;17.38;;;7.57;;
34715;SDS011;20943;42.870;74.606;2022-07-30T15:17:48;29.98;;;8.00;;
34715;SDS011;20943;42.870;74.606;2022-07-30T15:20:31;17.05;;;8.15;;
34715;SDS011;20943;42.870;74.606;2022-07-30T15:23:05;23.73;;;8.80;;
34715;SDS011;20943;42.870;74.606;2022-07-30T15:25:41;25.25;;;10.07;;
34715;SDS011;20943;42.870;74.606;2022-07-30T15:28:16;21.00;;;8.82;;
34715;SDS011;20943;42.870;74.606;2022-07-30T15:31:01;25.35;;;10.55;;
34715;SDS011;20943;42.870;74.606;2022-07-30T15:33:40;25.90;;;10.52;;
34715;SDS011;20943;42.870;74.606;2022-07-30T15:36:24;18.20;;;9.80;;
34715;SDS011;20943;42.870;74.606;2022-07-30T15:39:04;21.83;;;10.95;;
34715;SDS011;20943;42.870;74.606;2022-07-30T15:41:49;21.17;;;9.18;;
34715;SDS011;20943;42.870;74.606;2022-07-30T15:44:27;22.02;;;9.32;;
34715;SDS011;20943;42.870;74.606;2022-07-30T15:46:59;41.40;;;10.05;;
34715;SDS011;20943;42.870;74.606;2022-07-30T15:49:37;20.40;;;9.35;;
34715;SDS011;20943;42.870;74.606;2022-07-30T15:52:14;21.58;;;11.95;;
34715;SDS011;20943;42.870;74.606;2022-07-30T15:57:22;26.00;;;11.68;;
34715;SDS011;20943;42.870;74.606;2022-07-30T16:00:01;27.23;;;11.65;;
34715;SDS011;20943;42.870;74.606;2022-07-30T16:02:43;26.17;;;12.13;;
34715;SDS011;20943;42.870;74.606;2022-07-30T16:05:19;32.63;;;16.83;;